createdAt,value
2017-12-12T05:00:36.867Z,988.8
2017-12-12T05:01:02.370Z,988.8
2017-12-12T05:01:27.871Z,988.81
2017-12-12T05:01:53.337Z,988.84
2017-12-12T05:02:18.863Z,988.87
2017-12-12T05:02:44.327Z,988.91
2017-12-12T05:03:09.918Z,988.9
2017-12-12T05:03:35.423Z,988.93
2017-12-12T05:04:00.836Z,988.93
2017-12-12T05:05:15.131Z,988.96
2017-12-12T05:05:40.094Z,988.96
2017-12-12T05:06:05.546Z,988.96
2017-12-12T05:06:31.050Z,989.01
2017-12-12T05:06:56.513Z,989.03
2017-12-12T05:07:22.001Z,989.04
2017-12-12T05:07:47.453Z,989.07
2017-12-12T05:08:12.904Z,989.14
2017-12-12T05:08:38.409Z,989.14
2017-12-12T05:09:03.946Z,989.23
2017-12-12T05:09:29.503Z,989.16
2017-12-12T05:09:55.030Z,989.19
2017-12-12T05:10:20.570Z,989.21
2017-12-12T05:10:46.062Z,989.26
2017-12-12T05:11:11.558Z,989.26
2017-12-12T05:11:37.063Z,989.25
2017-12-12T05:12:02.597Z,989.31
2017-12-12T05:12:28.072Z,989.3
2017-12-12T05:12:53.588Z,989.37
2017-12-12T05:13:19.075Z,989.36
2017-12-12T05:13:44.588Z,989.36
2017-12-12T05:14:10.050Z,989.41
2017-12-12T05:14:35.555Z,989.39
2017-12-12T05:15:01.052Z,989.4
2017-12-12T05:15:26.563Z,989.39
2017-12-12T05:15:52.051Z,989.4
2017-12-12T05:16:17.532Z,989.41
2017-12-12T05:16:43.006Z,989.42
2017-12-12T05:17:08.495Z,989.47
2017-12-12T05:17:33.947Z,989.44
2017-12-12T05:17:59.432Z,989.48
2017-12-12T05:18:24.928Z,989.48
2017-12-12T05:18:50.406Z,989.46
2017-12-12T05:19:15.906Z,989.52
2017-12-12T05:19:41.387Z,989.51
2017-12-12T05:20:06.858Z,989.58
2017-12-12T05:20:32.320Z,989.62
2017-12-12T05:20:57.826Z,989.57
2017-12-12T05:21:23.296Z,989.6
2017-12-12T05:21:48.807Z,989.64
2017-12-12T05:22:14.304Z,989.64
2017-12-12T05:22:39.815Z,989.66
2017-12-12T05:23:05.301Z,989.75
2017-12-12T05:23:30.793Z,989.73
2017-12-12T05:23:56.239Z,989.7
2017-12-12T05:24:21.723Z,989.74
2017-12-12T05:24:47.225Z,989.72
2017-12-12T05:25:12.731Z,989.7
2017-12-12T05:25:38.190Z,989.78
2017-12-12T05:26:03.684Z,989.81
2017-12-12T05:26:29.184Z,989.71
2017-12-12T05:26:54.636Z,989.78
2017-12-12T05:27:20.166Z,989.83
2017-12-12T05:27:45.648Z,989.82
2017-12-12T05:28:11.158Z,989.77
2017-12-12T05:28:36.667Z,989.85
2017-12-12T05:29:02.148Z,989.85
2017-12-12T05:29:27.648Z,989.87
2017-12-12T05:29:53.183Z,989.89
2017-12-12T05:30:18.659Z,989.96
2017-12-12T05:30:44.129Z,989.92
2017-12-12T05:31:09.682Z,989.96
2017-12-12T05:31:35.138Z,989.93
2017-12-12T05:32:00.638Z,990.03
2017-12-12T05:32:26.111Z,989.98
2017-12-12T05:32:51.594Z,989.99
2017-12-12T05:33:17.082Z,990.01
2017-12-12T05:33:42.547Z,990.03
2017-12-12T05:34:08.064Z,990.02
2017-12-12T05:34:33.535Z,990.03
2017-12-12T05:34:59.051Z,990.03
2017-12-12T05:35:24.533Z,990.05
2017-12-12T05:35:50.022Z,990.07
2017-12-12T05:36:15.514Z,990.08
2017-12-12T05:36:40.999Z,990.11
2017-12-12T05:37:06.459Z,990.1
2017-12-12T05:37:31.934Z,990.13
2017-12-12T05:37:57.406Z,990.13
2017-12-12T05:38:22.877Z,990.15
2017-12-12T05:38:48.384Z,990.19
2017-12-12T05:39:13.854Z,990.22
2017-12-12T05:39:39.346Z,990.19
2017-12-12T05:40:04.802Z,990.14
2017-12-12T05:40:30.287Z,990.17
2017-12-12T05:40:55.757Z,990.19
2017-12-12T05:41:21.171Z,990.3
2017-12-12T05:41:46.699Z,990.29
2017-12-12T05:42:12.125Z,990.28
2017-12-12T05:42:37.603Z,990.29
2017-12-12T05:43:03.078Z,990.32
2017-12-12T05:43:28.566Z,990.37
2017-12-12T05:44:37.297Z,990.41
2017-12-12T05:45:02.774Z,990.4
2017-12-12T05:45:28.241Z,990.37
2017-12-12T05:45:53.701Z,990.4
2017-12-12T05:46:19.243Z,990.41
2017-12-12T05:46:44.741Z,990.43
2017-12-12T05:47:10.173Z,990.48
2017-12-12T05:47:35.642Z,990.43
2017-12-12T05:48:01.119Z,990.43
2017-12-12T05:48:59.649Z,990.46
2017-12-12T05:49:25.140Z,990.46
2017-12-12T05:49:50.653Z,990.5
2017-12-12T05:50:16.117Z,990.46
2017-12-12T05:50:41.585Z,990.48
2017-12-12T05:51:07.074Z,990.52
2017-12-12T05:51:32.544Z,990.52
2017-12-12T05:51:58.023Z,990.54
2017-12-12T05:52:23.558Z,990.55
2017-12-12T05:52:49.000Z,990.53
2017-12-12T05:53:14.428Z,990.54
2017-12-12T05:54:23.113Z,990.56
2017-12-12T05:54:48.615Z,990.56
2017-12-12T05:55:14.100Z,990.62
2017-12-12T05:55:39.598Z,990.65
2017-12-12T05:56:05.075Z,990.65
2017-12-12T05:56:30.594Z,990.65
2017-12-12T05:56:56.076Z,990.7
2017-12-12T05:57:21.589Z,990.65
2017-12-12T05:57:47.085Z,990.67
2017-12-12T05:58:12.565Z,990.66
2017-12-12T05:58:38.054Z,990.64
2017-12-12T05:59:03.533Z,990.66
2017-12-12T05:59:29.055Z,990.7
2017-12-12T05:59:54.567Z,990.7
2017-12-12T06:00:20.079Z,990.64
2017-12-12T06:00:45.602Z,990.67
2017-12-12T06:01:11.077Z,990.7
2017-12-12T06:01:36.562Z,990.71
2017-12-12T06:02:02.025Z,990.75
2017-12-12T06:02:27.532Z,990.71
2017-12-12T06:02:53.028Z,990.74
2017-12-12T06:03:18.538Z,990.72
2017-12-12T06:03:44.037Z,990.74
2017-12-12T06:04:42.581Z,990.81
2017-12-12T06:05:08.050Z,990.78
2017-12-12T06:05:33.527Z,990.8
2017-12-12T06:05:58.999Z,990.85
2017-12-12T06:06:24.495Z,990.82
2017-12-12T06:06:49.945Z,990.83
2017-12-12T06:07:15.434Z,990.85
2017-12-12T06:07:40.901Z,990.86
2017-12-12T06:08:06.392Z,990.88
2017-12-12T06:08:31.863Z,990.87
2017-12-12T06:08:57.352Z,990.93
2017-12-12T06:09:22.830Z,990.91
2017-12-12T06:10:41.740Z,990.97
2017-12-12T06:11:07.204Z,990.97
2017-12-12T06:11:32.708Z,991
2017-12-12T06:11:58.153Z,990.98
2017-12-12T06:12:23.624Z,991.04
2017-12-12T06:12:49.134Z,991.02
2017-12-12T06:13:14.615Z,991.03
2017-12-12T06:13:40.089Z,991.06
2017-12-12T06:14:05.571Z,991.07
2017-12-12T06:14:31.028Z,991.12
2017-12-12T06:14:56.496Z,991.15
2017-12-12T06:15:21.954Z,991.11
2017-12-12T06:15:47.449Z,991.14
2017-12-12T06:16:56.111Z,991.15
2017-12-12T06:17:21.573Z,991.14
2017-12-12T06:17:47.052Z,991.17
2017-12-12T06:18:12.558Z,991.23
2017-12-12T06:18:37.995Z,991.17
2017-12-12T06:19:03.470Z,991.2
2017-12-12T06:19:28.901Z,991.21
2017-12-12T06:19:54.414Z,991.23
2017-12-12T06:20:19.842Z,991.27
2017-12-12T06:20:45.345Z,991.24
2017-12-12T06:21:10.815Z,991.23
2017-12-12T06:21:36.314Z,991.31
2017-12-12T06:22:01.820Z,991.32
2017-12-12T06:22:27.283Z,991.34
2017-12-12T06:22:52.737Z,991.34
2017-12-12T06:23:19.976Z,991.39
2017-12-12T06:23:45.493Z,991.4
2017-12-12T06:24:11.076Z,991.41
2017-12-12T06:24:36.488Z,991.43
2017-12-12T06:25:02.015Z,991.42
2017-12-12T06:25:27.668Z,991.43
2017-12-12T06:25:53.157Z,991.44
2017-12-12T06:26:18.622Z,991.49
2017-12-12T06:26:44.136Z,991.5
2017-12-12T06:27:09.690Z,991.48
2017-12-12T06:27:35.148Z,991.56
2017-12-12T06:28:00.680Z,991.56
2017-12-12T06:28:26.187Z,991.58
2017-12-12T06:28:51.697Z,991.56
2017-12-12T06:29:17.277Z,991.59
2017-12-12T06:29:42.719Z,991.62
2017-12-12T06:30:08.200Z,991.63
2017-12-12T06:30:33.694Z,991.64
2017-12-12T06:30:59.129Z,991.61
2017-12-12T06:31:24.653Z,991.64
2017-12-12T06:31:50.191Z,991.64
2017-12-12T06:32:15.674Z,991.65
2017-12-12T06:32:41.272Z,991.68
2017-12-12T06:33:06.813Z,991.67
2017-12-12T06:33:32.299Z,991.66
2017-12-12T06:33:57.763Z,991.71
2017-12-12T06:34:23.260Z,991.68
2017-12-12T06:34:48.778Z,991.69
2017-12-12T06:35:14.301Z,991.74
2017-12-12T06:35:39.786Z,991.75
2017-12-12T06:36:05.318Z,991.76
2017-12-12T06:36:30.852Z,991.77
2017-12-12T06:36:56.249Z,991.76
2017-12-12T06:37:21.738Z,991.76
2017-12-12T06:37:47.199Z,991.81
2017-12-12T06:38:12.714Z,991.8
2017-12-12T06:38:38.192Z,991.82
2017-12-12T06:39:03.691Z,991.82
2017-12-12T06:39:29.188Z,991.83
2017-12-12T06:39:54.672Z,991.87
2017-12-12T06:40:20.163Z,991.9
2017-12-12T06:40:45.605Z,991.91
2017-12-12T06:41:11.108Z,991.89
2017-12-12T06:41:36.570Z,991.92
2017-12-12T06:42:02.074Z,991.95
2017-12-12T06:42:27.495Z,991.94
2017-12-12T06:42:52.965Z,991.97
2017-12-12T06:43:18.495Z,991.96
2017-12-12T06:43:43.916Z,992
2017-12-12T06:44:09.385Z,992.02
2017-12-12T06:44:34.862Z,992.03
2017-12-12T06:45:00.357Z,992.07
2017-12-12T06:45:25.866Z,992.09
2017-12-12T06:45:51.368Z,992.07
2017-12-12T06:46:54.975Z,992.07
2017-12-12T06:47:20.443Z,992.05
2017-12-12T06:47:46.009Z,992.09
2017-12-12T06:48:11.510Z,992.06
2017-12-12T06:48:36.996Z,992.12
2017-12-12T06:49:02.504Z,992.13
2017-12-12T06:49:27.999Z,992.11
2017-12-12T06:49:53.511Z,992.09
2017-12-12T06:50:19.005Z,992.09
2017-12-12T06:50:44.513Z,992.16
2017-12-12T06:51:10.021Z,992.1
2017-12-12T06:51:35.617Z,992.14
2017-12-12T06:52:01.091Z,992.16
2017-12-12T06:52:26.614Z,992.13
2017-12-12T06:52:52.136Z,992.12
2017-12-12T06:53:17.597Z,992.19
2017-12-12T06:53:43.058Z,992.18
2017-12-12T06:54:08.581Z,992.16
2017-12-12T06:54:34.101Z,992.2
2017-12-12T06:54:59.578Z,992.24
2017-12-12T06:55:25.118Z,992.26
2017-12-12T06:55:50.533Z,992.23
2017-12-12T06:56:16.026Z,992.29
2017-12-12T06:56:41.498Z,992.25
2017-12-12T06:57:07.056Z,992.25
2017-12-12T06:57:32.503Z,992.3
2017-12-12T06:57:58.009Z,992.31
2017-12-12T06:58:23.511Z,992.33
2017-12-12T06:58:48.981Z,992.37
2017-12-12T06:59:14.492Z,992.4
2017-12-12T06:59:39.957Z,992.39
2017-12-12T07:00:05.462Z,992.42
2017-12-12T07:00:31.004Z,992.41
2017-12-12T07:00:56.496Z,992.43
2017-12-12T07:01:21.987Z,992.4
2017-12-12T07:01:47.490Z,992.47
2017-12-12T07:02:12.997Z,992.5
2017-12-12T07:02:38.484Z,992.53
2017-12-12T07:03:03.949Z,992.63
2017-12-12T07:03:29.419Z,992.62
2017-12-12T07:03:54.902Z,992.5
2017-12-12T07:04:20.399Z,992.61
2017-12-12T07:04:45.892Z,992.61
2017-12-12T07:05:11.443Z,992.62
2017-12-12T07:05:36.925Z,992.64
2017-12-12T07:06:02.469Z,992.68
2017-12-12T07:06:28.010Z,992.64
2017-12-12T07:06:53.459Z,992.73
2017-12-12T07:07:18.989Z,992.74
2017-12-12T07:07:44.489Z,992.65
2017-12-12T07:08:09.981Z,992.72
2017-12-12T07:08:35.458Z,992.71
2017-12-12T07:09:00.950Z,992.74
2017-12-12T07:09:26.412Z,992.8
2017-12-12T07:09:51.897Z,992.78
2017-12-12T07:10:17.358Z,992.8
2017-12-12T07:10:42.853Z,992.8
2017-12-12T07:11:08.356Z,992.84
2017-12-12T07:11:33.834Z,992.82
2017-12-12T07:11:59.306Z,992.87
2017-12-12T07:12:24.795Z,992.85
2017-12-12T07:12:50.258Z,992.9
2017-12-12T07:13:15.721Z,992.87
2017-12-12T07:13:41.175Z,992.88
2017-12-12T07:14:06.651Z,992.93
2017-12-12T07:14:32.139Z,992.85
2017-12-12T07:14:57.672Z,992.87
2017-12-12T07:15:23.132Z,992.89
2017-12-12T07:15:48.555Z,992.92
2017-12-12T07:16:14.048Z,992.91
2017-12-12T07:17:12.579Z,992.98
2017-12-12T07:17:38.091Z,993.03
2017-12-12T07:18:03.467Z,993.02
2017-12-12T07:18:28.932Z,993.01
2017-12-12T07:18:54.390Z,993.05
2017-12-12T07:19:19.842Z,993.05
2017-12-12T07:19:45.320Z,993.06
2017-12-12T07:20:10.837Z,993.04
2017-12-12T07:20:36.330Z,993.07
2017-12-12T07:21:01.834Z,993.12
2017-12-12T07:21:27.360Z,993.13
2017-12-12T07:21:52.825Z,993.13
2017-12-12T07:22:18.291Z,993.18
2017-12-12T07:22:43.791Z,993.2
2017-12-12T07:23:52.502Z,993.16
2017-12-12T07:24:17.987Z,993.22
2017-12-12T07:24:43.494Z,993.24
2017-12-12T07:25:08.986Z,993.2
2017-12-12T07:25:34.494Z,993.25
2017-12-12T07:26:00.026Z,993.26
2017-12-12T07:26:25.525Z,993.29
2017-12-12T07:26:51.022Z,993.34
2017-12-12T07:27:16.485Z,993.37
2017-12-12T07:27:42.025Z,993.32
2017-12-12T07:28:07.521Z,993.3
2017-12-12T07:28:33.038Z,993.35
2017-12-12T07:28:58.508Z,993.42
2017-12-12T07:29:24.012Z,993.38
2017-12-12T07:29:49.520Z,993.42
2017-12-12T07:30:15.022Z,993.47
2017-12-12T07:30:40.545Z,993.46
2017-12-12T07:31:06.014Z,993.47
2017-12-12T07:31:31.504Z,993.5
2017-12-12T07:31:56.997Z,993.53
2017-12-12T07:32:22.521Z,993.5
2017-12-12T07:32:48.098Z,993.56
2017-12-12T07:33:13.567Z,993.55
2017-12-12T07:33:39.064Z,993.58
2017-12-12T07:34:04.552Z,993.58
2017-12-12T07:34:30.021Z,993.6
2017-12-12T07:34:55.479Z,993.58
2017-12-12T07:35:20.968Z,993.58
2017-12-12T07:35:46.480Z,993.64
2017-12-12T07:36:11.981Z,993.65
2017-12-12T07:36:37.493Z,993.62
2017-12-12T07:37:03.012Z,993.68
2017-12-12T07:37:28.528Z,993.68
2017-12-12T07:37:54.021Z,993.68
2017-12-12T07:38:19.497Z,993.67
2017-12-12T07:38:45.018Z,993.7
2017-12-12T07:39:10.512Z,993.69
2017-12-12T07:39:35.984Z,993.74
2017-12-12T07:40:01.470Z,993.71
2017-12-12T07:40:27.004Z,993.73
2017-12-12T07:40:52.498Z,993.71
2017-12-12T07:41:18.010Z,993.68
2017-12-12T07:42:31.831Z,993.74
2017-12-12T07:42:57.348Z,993.73
2017-12-12T07:43:22.845Z,993.78
2017-12-12T07:43:48.322Z,993.76
2017-12-12T07:44:13.825Z,993.75
2017-12-12T07:44:39.326Z,993.78
2017-12-12T07:45:04.788Z,993.8
2017-12-12T07:45:30.300Z,993.86
2017-12-12T07:45:55.747Z,993.78
2017-12-12T07:46:21.215Z,993.84
2017-12-12T07:46:46.780Z,993.78
2017-12-12T07:47:50.437Z,993.79
2017-12-12T07:48:15.944Z,993.89
2017-12-12T07:48:41.456Z,993.9
2017-12-12T07:49:06.966Z,993.91
2017-12-12T07:50:15.651Z,993.88
2017-12-12T07:50:41.142Z,993.93
2017-12-12T07:51:06.630Z,993.93
2017-12-12T07:51:32.105Z,993.95
2017-12-12T07:51:57.599Z,993.92
2017-12-12T07:52:23.087Z,993.98
2017-12-12T07:52:48.559Z,993.95
2017-12-12T07:53:14.034Z,993.98
2017-12-12T07:53:39.565Z,993.99
2017-12-12T07:54:05.096Z,993.99
2017-12-12T07:54:30.644Z,993.99
2017-12-12T07:54:56.169Z,993.95
2017-12-12T07:55:21.665Z,993.99
2017-12-12T07:55:47.183Z,994
2017-12-12T07:56:12.675Z,994.03
2017-12-12T07:56:38.175Z,994.06
2017-12-12T07:57:03.687Z,994.06
2017-12-12T07:57:29.188Z,994.04
2017-12-12T07:57:54.733Z,994.06
2017-12-12T07:58:20.215Z,994.09
2017-12-12T07:59:34.034Z,994.17
2017-12-12T07:59:59.524Z,994.17
2017-12-12T08:00:25.029Z,994.2
2017-12-12T08:00:50.496Z,994.22
2017-12-12T08:01:15.987Z,994.22
2017-12-12T08:01:41.486Z,994.24
2017-12-12T08:02:06.980Z,994.24
2017-12-12T08:02:32.478Z,994.28
2017-12-12T08:02:57.982Z,994.35
2017-12-12T08:03:23.452Z,994.33
2017-12-12T08:03:48.938Z,994.29
2017-12-12T08:04:14.412Z,994.32
2017-12-12T08:04:39.901Z,994.28
2017-12-12T08:05:05.400Z,994.31
2017-12-12T08:05:30.901Z,994.33
2017-12-12T08:05:56.397Z,994.31
2017-12-12T08:06:21.867Z,994.33
2017-12-12T08:06:47.331Z,994.36
2017-12-12T08:07:12.820Z,994.33
2017-12-12T08:07:38.285Z,994.43
2017-12-12T08:08:03.806Z,994.38
2017-12-12T08:08:29.282Z,994.36
2017-12-12T08:08:54.797Z,994.42
2017-12-12T08:09:20.249Z,994.41
2017-12-12T08:09:45.745Z,994.42
2017-12-12T08:10:11.237Z,994.44
2017-12-12T08:10:36.821Z,994.45
2017-12-12T08:11:02.323Z,994.47
2017-12-12T08:11:27.820Z,994.48
2017-12-12T08:11:53.302Z,994.53
2017-12-12T08:13:07.129Z,994.45
2017-12-12T08:13:32.616Z,994.54
2017-12-12T08:13:58.084Z,994.55
2017-12-12T08:14:23.558Z,994.49
2017-12-12T08:14:49.040Z,994.54
2017-12-12T08:15:14.546Z,994.53
2017-12-12T08:15:39.999Z,994.57
2017-12-12T08:16:05.553Z,994.54
2017-12-12T08:16:31.066Z,994.59
2017-12-12T08:16:56.575Z,994.62
2017-12-12T08:17:22.047Z,994.62
2017-12-12T08:17:47.699Z,994.62
2017-12-12T08:18:13.179Z,994.6
2017-12-12T08:18:38.652Z,994.61
2017-12-12T08:19:04.126Z,994.68
2017-12-12T08:19:29.617Z,994.63
2017-12-12T08:19:55.119Z,994.67
2017-12-12T08:20:20.588Z,994.76
2017-12-12T08:20:46.065Z,994.68
2017-12-12T08:21:11.563Z,994.68
2017-12-12T08:21:37.065Z,994.75
2017-12-12T08:22:02.559Z,994.75
2017-12-12T08:22:28.080Z,994.75
2017-12-12T08:22:53.601Z,994.78
2017-12-12T08:23:19.108Z,994.8
2017-12-12T08:23:44.578Z,994.82
2017-12-12T08:24:10.093Z,994.83
2017-12-12T08:24:35.535Z,994.89
2017-12-12T08:25:01.034Z,994.89
2017-12-12T08:25:26.525Z,994.87
2017-12-12T08:25:52.062Z,994.9
2017-12-12T08:26:17.662Z,994.92
2017-12-12T08:26:43.132Z,994.92
2017-12-12T08:27:08.551Z,994.96
2017-12-12T08:27:34.021Z,994.96
2017-12-12T08:27:59.478Z,994.99
2017-12-12T08:28:24.938Z,995
2017-12-12T08:28:50.420Z,994.97
2017-12-12T08:29:15.898Z,995.05
2017-12-12T08:29:41.394Z,995.05
2017-12-12T08:30:06.882Z,995.02
2017-12-12T08:30:32.354Z,995.1
2017-12-12T08:30:57.831Z,995.1
2017-12-12T08:31:23.366Z,995.12
2017-12-12T08:31:48.828Z,995.1
2017-12-12T08:32:14.356Z,995.06
2017-12-12T08:32:39.864Z,995.09
2017-12-12T08:33:05.362Z,995.1
2017-12-12T08:33:30.804Z,995.1
2017-12-12T08:33:56.361Z,995.12
2017-12-12T08:34:21.871Z,995.15
2017-12-12T08:34:47.335Z,995.06
2017-12-12T08:35:12.853Z,995.2
2017-12-12T08:35:38.398Z,995.23
2017-12-12T08:36:03.965Z,995.18
2017-12-12T08:36:29.435Z,995.18
2017-12-12T08:36:54.912Z,995.15
2017-12-12T08:37:20.409Z,995.16
2017-12-12T08:37:45.903Z,995.18
2017-12-12T08:38:11.488Z,995.21
2017-12-12T08:38:36.997Z,995.18
2017-12-12T08:39:02.531Z,995.24
2017-12-12T08:39:27.986Z,995.19
2017-12-12T08:39:53.564Z,995.29
2017-12-12T08:40:19.103Z,995.29
2017-12-12T08:40:44.607Z,995.25
2017-12-12T08:41:10.150Z,995.23
2017-12-12T08:41:35.599Z,995.27
2017-12-12T08:42:01.106Z,995.27
2017-12-12T08:42:26.608Z,995.29
2017-12-12T08:42:52.201Z,995.29
2017-12-12T08:43:17.671Z,995.32
2017-12-12T08:43:43.157Z,995.29
2017-12-12T08:44:08.665Z,995.34
2017-12-12T08:45:27.513Z,995.34
2017-12-12T08:45:52.988Z,995.4
2017-12-12T08:46:18.449Z,995.36
2017-12-12T08:46:43.926Z,995.33
2017-12-12T08:47:09.402Z,995.41
2017-12-12T08:47:34.882Z,995.38
2017-12-12T08:48:00.407Z,995.41
2017-12-12T08:48:25.851Z,995.46
2017-12-12T08:48:51.317Z,995.5
2017-12-12T08:49:16.827Z,995.48
2017-12-12T08:49:42.295Z,995.52
2017-12-12T08:50:07.798Z,995.51
2017-12-12T08:50:33.251Z,995.47
2017-12-12T08:50:58.743Z,995.54
2017-12-12T08:51:24.214Z,995.5
2017-12-12T08:51:49.673Z,995.52
2017-12-12T08:52:15.179Z,995.53
2017-12-12T08:52:40.679Z,995.57
2017-12-12T08:53:06.153Z,995.52
2017-12-12T08:53:31.659Z,995.59
2017-12-12T08:53:57.088Z,995.55
2017-12-12T08:54:22.555Z,995.57
2017-12-12T08:54:48.003Z,995.57
2017-12-12T08:55:13.510Z,995.56
2017-12-12T08:55:39.034Z,995.54
2017-12-12T08:56:04.527Z,995.54
2017-12-12T08:56:29.998Z,995.58
2017-12-12T08:56:55.506Z,995.58
2017-12-12T08:57:20.998Z,995.51
2017-12-12T08:57:46.484Z,995.59
2017-12-12T08:58:11.967Z,995.57
2017-12-12T08:58:37.450Z,995.65
2017-12-12T08:59:02.928Z,995.61
2017-12-12T08:59:28.448Z,995.61
2017-12-12T08:59:53.971Z,995.59
2017-12-12T09:00:19.424Z,995.64
2017-12-12T09:00:44.896Z,995.67
2017-12-12T09:01:10.388Z,995.67
2017-12-12T09:01:35.844Z,995.7
2017-12-12T09:02:01.318Z,995.71
2017-12-12T09:02:26.830Z,995.74
2017-12-12T09:02:52.347Z,995.73
2017-12-12T09:03:17.834Z,995.68
2017-12-12T09:03:43.283Z,995.7
2017-12-12T09:04:08.779Z,995.79
2017-12-12T09:04:34.227Z,995.8
2017-12-12T09:04:59.700Z,995.8
2017-12-12T09:05:25.182Z,995.79
2017-12-12T09:05:50.654Z,995.83
2017-12-12T09:06:16.134Z,995.76
2017-12-12T09:06:41.616Z,995.76
2017-12-12T09:07:07.138Z,995.75
2017-12-12T09:07:32.634Z,995.8
2017-12-12T09:07:58.103Z,995.88
2017-12-12T09:08:23.637Z,995.92
2017-12-12T09:08:49.069Z,995.9
2017-12-12T09:09:14.558Z,995.84
2017-12-12T09:09:40.020Z,995.92
2017-12-12T09:10:05.573Z,995.9
2017-12-12T09:10:31.088Z,995.91
2017-12-12T09:10:56.498Z,995.91
2017-12-12T09:12:15.735Z,995.98
2017-12-12T09:13:29.697Z,995.99
2017-12-12T09:13:55.183Z,995.94
2017-12-12T09:14:20.691Z,995.97
2017-12-12T09:14:46.193Z,996
2017-12-12T09:15:11.650Z,996.03
2017-12-12T09:16:10.171Z,996.02
2017-12-12T09:16:35.668Z,996.06
2017-12-12T09:17:01.167Z,996.11
2017-12-12T09:17:26.670Z,996.04
2017-12-12T09:17:52.144Z,996.04
2017-12-12T09:18:17.621Z,996.11
2017-12-12T09:18:43.093Z,996.07
2017-12-12T09:19:08.572Z,996.05
2017-12-12T09:19:34.053Z,996.04
2017-12-12T09:19:59.525Z,996.09
2017-12-12T09:20:24.975Z,996.1
2017-12-12T09:20:50.468Z,996.09
2017-12-12T09:21:15.948Z,996.08
2017-12-12T09:21:41.480Z,996.11
2017-12-12T09:22:06.937Z,996.09
2017-12-12T09:22:32.420Z,996.12
2017-12-12T09:22:57.910Z,996.13
2017-12-12T09:23:23.416Z,996.17
2017-12-12T09:23:48.922Z,996.15
2017-12-12T09:24:14.338Z,996.17
2017-12-12T09:24:39.808Z,996.16
2017-12-12T09:25:05.360Z,996.17
2017-12-12T09:25:30.813Z,996.2
2017-12-12T09:25:56.297Z,996.23
2017-12-12T09:26:21.820Z,996.29
2017-12-12T09:26:47.272Z,996.3
2017-12-12T09:27:12.757Z,996.3
2017-12-12T09:27:38.297Z,996.29
2017-12-12T09:28:03.752Z,996.38
2017-12-12T09:28:29.239Z,996.38
2017-12-12T09:28:54.697Z,996.37
2017-12-12T09:29:20.235Z,996.35
2017-12-12T09:29:45.670Z,996.44
2017-12-12T09:30:11.091Z,996.37
2017-12-12T09:30:36.567Z,996.39
2017-12-12T09:31:02.059Z,996.41
2017-12-12T09:31:27.534Z,996.49
2017-12-12T09:31:52.995Z,996.46
2017-12-12T09:32:18.508Z,996.46
2017-12-12T09:32:44.041Z,996.48
2017-12-12T09:33:58.187Z,996.48
2017-12-12T09:34:23.699Z,996.49
2017-12-12T09:34:49.167Z,996.51
2017-12-12T09:35:14.630Z,996.57
2017-12-12T09:35:40.100Z,996.53
2017-12-12T09:36:05.594Z,996.57
2017-12-12T09:36:31.087Z,996.54
2017-12-12T09:36:56.555Z,996.56
2017-12-12T09:37:22.020Z,996.61
2017-12-12T09:37:47.540Z,996.56
2017-12-12T09:38:12.983Z,996.6
2017-12-12T09:38:38.436Z,996.66
2017-12-12T09:39:03.949Z,996.72
2017-12-12T09:39:29.414Z,996.7
2017-12-12T09:39:54.897Z,996.7
2017-12-12T09:40:20.389Z,996.72
2017-12-12T09:40:45.846Z,996.78
2017-12-12T09:41:11.308Z,996.75
2017-12-12T09:41:36.764Z,996.69
2017-12-12T09:42:02.239Z,996.74
2017-12-12T09:42:27.687Z,996.81
2017-12-12T09:42:53.185Z,996.78
2017-12-12T09:43:18.654Z,996.81
2017-12-12T09:43:44.219Z,996.85
2017-12-12T09:44:09.615Z,996.78
2017-12-12T09:44:35.107Z,996.81
2017-12-12T09:45:00.624Z,996.8
2017-12-12T09:45:26.070Z,996.88
2017-12-12T09:45:51.518Z,996.84
2017-12-12T09:47:05.288Z,996.89
2017-12-12T09:47:30.787Z,996.91
2017-12-12T09:47:56.264Z,996.92
2017-12-12T09:48:21.775Z,996.91
2017-12-12T09:48:47.193Z,996.93
2017-12-12T09:49:12.730Z,996.92
2017-12-12T09:49:38.198Z,996.98
2017-12-12T09:50:03.671Z,996.97
2017-12-12T09:50:29.139Z,997.02
2017-12-12T09:51:48.046Z,997.07
2017-12-12T09:52:13.527Z,997.04
2017-12-12T09:52:39.004Z,997.09
2017-12-12T09:53:04.520Z,997.07
2017-12-12T09:53:30.033Z,997.12
2017-12-12T09:53:55.475Z,997.11
2017-12-12T09:54:21.004Z,997.11
2017-12-12T09:54:46.491Z,997.15
2017-12-12T09:55:12.004Z,997.15
2017-12-12T09:55:37.449Z,997.17
2017-12-12T09:56:02.969Z,997.19
2017-12-12T09:56:28.455Z,997.12
2017-12-12T09:56:53.901Z,997.15
2017-12-12T09:57:19.340Z,997.15
2017-12-12T09:57:44.808Z,997.21
2017-12-12T09:58:10.248Z,997.21
2017-12-12T09:58:35.734Z,997.22
2017-12-12T09:59:01.172Z,997.22
2017-12-12T09:59:26.629Z,997.23
2017-12-12T09:59:52.102Z,997.23
2017-12-12T10:00:17.560Z,997.24
2017-12-12T10:00:43.026Z,997.21
2017-12-12T10:01:08.490Z,997.3
2017-12-12T10:01:33.968Z,997.26
2017-12-12T10:01:59.442Z,997.3
2017-12-12T10:02:24.898Z,997.28
2017-12-12T10:03:39.675Z,997.3
2017-12-12T10:04:05.192Z,997.3
2017-12-12T10:04:30.642Z,997.25
2017-12-12T10:04:56.156Z,997.3
2017-12-12T10:05:21.606Z,997.29
2017-12-12T10:06:40.533Z,997.36
2017-12-12T10:07:06.034Z,997.33
2017-12-12T10:07:31.502Z,997.41
2017-12-12T10:08:40.168Z,997.36
2017-12-12T10:09:05.664Z,997.4
2017-12-12T10:09:31.100Z,997.35
2017-12-12T10:09:56.599Z,997.39
2017-12-12T10:10:22.074Z,997.41
2017-12-12T10:10:47.511Z,997.44
2017-12-12T10:11:12.993Z,997.44
2017-12-12T10:11:38.444Z,997.5
2017-12-12T10:12:03.938Z,997.47
2017-12-12T10:12:29.395Z,997.46
2017-12-12T10:12:54.862Z,997.5
2017-12-12T10:13:20.390Z,997.52
2017-12-12T10:13:45.834Z,997.53
2017-12-12T10:14:11.293Z,997.53
2017-12-12T10:14:36.772Z,997.51
2017-12-12T10:15:02.248Z,997.52
2017-12-12T10:16:11.326Z,997.59
2017-12-12T10:16:36.816Z,997.58
2017-12-12T10:17:02.308Z,997.54
2017-12-12T10:17:27.786Z,997.58
2017-12-12T10:17:53.267Z,997.59
2017-12-12T10:18:18.747Z,997.6
2017-12-12T10:18:44.258Z,997.65
2017-12-12T10:19:09.729Z,997.59
2017-12-12T10:19:35.172Z,997.57
2017-12-12T10:20:00.645Z,997.61
2017-12-12T10:20:26.120Z,997.65
2017-12-12T10:20:51.570Z,997.6
2017-12-12T10:21:17.055Z,997.69
2017-12-12T10:21:42.542Z,997.72
2017-12-12T10:22:08.049Z,997.65
2017-12-12T10:22:33.547Z,997.7
2017-12-12T10:22:59.035Z,997.67
2017-12-12T10:23:24.545Z,997.71
2017-12-12T10:23:49.998Z,997.7
2017-12-12T10:25:08.856Z,997.7
2017-12-12T10:25:34.337Z,997.7
2017-12-12T10:25:59.790Z,997.67
2017-12-12T10:26:25.248Z,997.69
2017-12-12T10:26:50.730Z,997.7
2017-12-12T10:27:16.215Z,997.72
2017-12-12T10:27:41.703Z,997.7
2017-12-12T10:28:45.288Z,997.72
2017-12-12T10:29:10.780Z,997.77
2017-12-12T10:29:36.284Z,997.73
2017-12-12T10:30:01.722Z,997.76
2017-12-12T10:30:27.213Z,997.74
2017-12-12T10:30:52.661Z,997.8
2017-12-12T10:31:18.152Z,997.69
2017-12-12T10:31:43.615Z,997.81
2017-12-12T10:32:09.121Z,997.77
2017-12-12T10:32:34.587Z,997.84
2017-12-12T10:33:00.093Z,997.83
2017-12-12T10:33:25.534Z,997.86
2017-12-12T10:33:51.028Z,997.86
2017-12-12T10:34:16.487Z,997.96
2017-12-12T10:34:42.012Z,997.89
2017-12-12T10:35:07.489Z,997.9
2017-12-12T10:35:33.091Z,997.92
2017-12-12T10:35:58.490Z,997.93
2017-12-12T10:36:23.955Z,997.85
2017-12-12T10:36:49.433Z,997.91
2017-12-12T10:37:14.927Z,997.94
2017-12-12T10:37:40.383Z,997.91
2017-12-12T10:38:05.880Z,997.98
2017-12-12T10:38:31.326Z,997.95
2017-12-12T10:38:56.915Z,997.94
2017-12-12T10:39:22.342Z,998
2017-12-12T10:39:47.779Z,997.94
2017-12-12T10:40:13.241Z,997.96
2017-12-12T10:40:38.700Z,997.91